Potsdam, NY

7:16 PM EDT on June 26, 2017 (GMT -0400)
ERC, Clarkson Campus | | Change Station

Elev 479 ft 44.66 °N, 75.00 °W | Updated 14 minutes ago

Rain
Rain
64.9 °F
Feels Like 64.9 °F
N
0.0
Wind Variable Wind from SSW
Gusts 2.0 mph

Today
High -- | Low -- °F
--% Chance of Precip.
Yesterday
High -- | Low -- °F
Precip. -- in
Pressure 29.93 in
Visibility 10.0 miles
Clouds Few 7500 ft
Mostly Cloudy 9500 ft
Dew Point 58 °F
Humidity 78%
Rainfall 0.02 in
Snow Depth Not available.
5:16 AM 8:49 PM
Waxing Crescent, 12% visible
METAR KMSS 262253Z AUTO 21004KT 10SM FEW075 BKN095 19/12 A2993 RMK AO2 RAB05E16 SLPNO P0000 T01890122
Pressure 29.93 in
Visibility 10.0 miles
Clouds Few 7500 ft
Mostly Cloudy 9500 ft
Dew Point 58 °F
Humidity 78%
Rainfall 0.02 in
Snow Depth Not available.
5:16 AM 8:49 PM
Waxing Crescent, 12% visible
METAR KMSS 262253Z AUTO 21004KT 10SM FEW075 BKN095 19/12 A2993 RMK AO2 RAB05E16 SLPNO P0000 T01890122

Get Severe Weather Alerts

Thanks for signing up!

Be on the lookout for a verification email in your inbox.

You'll start receiving the daily forecast at 6 AM.

×

10-Day Weather Forecast

Almanac

Astronomy

Jun. 26, 2017 Rise Set
Actual Time
Civil Twilight
Nautical Twilight
Astronomical Twilight
Moon
Length of Visible Light
Length of Day
Tomorrow will be .
, % of the Moon is Illuminated

Today's Extremes

State Highs State Lows

Community

WunderPhotos

Category 6

Welcome to Category 6. This is the collective home for Weather Underground's featured writeups by Dr. Jeff Masters (right), Bob Henson (left), Chris Burt, and other regular contributors.

Nearby

Air Quality

  Air Quality AQ Index Pollutant
Not available.

Snow Depth

Station Depth Elevation

Earthquake Activity

City Distance Mag. Time & Date
Minimum magnitude displayed is 2.5.

Coastal Water Temperatures

Place Temperature

Stations

Nearby Weather Stations

Station Location Temp. Windchill Dew Point Humidity Wind Precip. Elev Updated Type
                   

Watches & Warnings

There are currently no watches in effect.